^^
Meteo Knjazevac Station Historical Data
Daily Summary for March 26, 2021 Units:  English    Metric   Both
Daily Weekly Monthly Yearly Custom
  High: Low: Average:
Temperature: 82 °F 60.1 °F 66.2 °F
Dew Point: 64.3 °F 57.1 °F 59.6 °F
Humidity: 91% 53% 81%
Wind Speed: 8mph 0mph 3.1mph
Wind Gust: 15mph - -
Wind- - SW
Pressure: 30.06 in 29.91 in -
Precipitation: 0.00 in    
Historical Graphs
 
 
Tabular Data for March 26, 2021
Time Temperature Dew Point Pressure Wind Wind Speed Wind Gust Humidity Rainfall Rate (Hourly) solar Conditions
00:00 62.4 °F 58.8 °F 30.06 in WSW 2 mph 6 mph 88% 0.00 in 0 W/m2
00:10 62.4 °F 58.8 °F 30.06 in WSW 1 mph 4 mph 88% 0.00 in 0 W/m2
00:20 62.2 °F 58.6 °F 30.06 in West 2 mph 5 mph 88% 0.00 in 0 W/m2
00:30 61.9 °F 58.6 °F 30.06 in WSW 2 mph 5 mph 89% 0.00 in 0 W/m2
00:40 61.7 °F 58.4 °F 30.05 in SW 3 mph 5 mph 89% 0.00 in 0 W/m2
00:50 61.5 °F 58.2 °F 30.05 in WSW 2 mph 4 mph 89% 0.00 in 0 W/m2
01:00 61.5 °F 58.2 °F 30.05 in SW 2 mph 5 mph 89% 0.00 in 0 W/m2
01:10 61.5 °F 58.2 °F 30.05 in SSW 2 mph 3 mph 89% 0.00 in 0 W/m2
01:20 61.3 °F 58.1 °F 30.04 in SW 1 mph 3 mph 89% 0.00 in 0 W/m2
01:30 61.3 °F 58.1 °F 30.04 in SW 2 mph 3 mph 89% 0.00 in 0 W/m2
01:40 61.3 °F 58.1 °F 30.05 in SW 2 mph 4 mph 89% 0.00 in 0 W/m2
01:50 61.3 °F 58.1 °F 30.05 in SW 2 mph 4 mph 89% 0.00 in 0 W/m2
02:00 61.3 °F 58.1 °F 30.05 in WSW 1 mph 4 mph 89% 0.00 in 0 W/m2
02:10 61.3 °F 58.1 °F 30.05 in SW 5 mph 6 mph 89% 0.00 in 0 W/m2
02:20 61.3 °F 58.1 °F 30.04 in SW 2 mph 5 mph 89% 0.00 in 0 W/m2
02:30 61.3 °F 58.1 °F 30.04 in SSW 2 mph 5 mph 89% 0.00 in 0 W/m2
02:40 61.2 °F 57.9 °F 30.04 in SW 2 mph 5 mph 89% 0.00 in 0 W/m2
02:50 61.2 °F 57.9 °F 30.04 in SW 2 mph 5 mph 89% 0.00 in 0 W/m2
03:00 61.2 °F 57.9 °F 30.03 in SW 1 mph 4 mph 89% 0.00 in 0 W/m2
03:10 61.2 °F 57.9 °F 30.03 in SW 2 mph 6 mph 89% 0.00 in 0 W/m2
03:20 61 °F 57.7 °F 30.03 in SSW 2 mph 5 mph 89% 0.00 in 0 W/m2
03:30 60.9 °F 57.7 °F 30.03 in SSW 2 mph 4 mph 89% 0.00 in 0 W/m2
03:40 60.8 °F 57.8 °F 30.03 in SW 3 mph 5 mph 90% 0.00 in 0 W/m2
03:50 60.4 °F 57.5 °F 30.04 in SW 3 mph 5 mph 90% 0.00 in 0 W/m2
04:00 60.3 °F 57.3 °F 30.03 in SW 2 mph 5 mph 90% 0.00 in 0 W/m2
04:10 60.1 °F 57.1 °F 30.03 in Calm   3 mph 90% 0.00 in 0 W/m2
04:20 60.2 °F 57.6 °F 30.03 in SSE 1 mph 2 mph 91% 0.00 in 0 W/m2
04:30 60.3 °F 57.3 °F 30.02 in Calm   2 mph 90% 0.00 in 0 W/m2
04:40 60.3 °F 57.3 °F 30.03 in Calm   2 mph 90% 0.00 in 0 W/m2
04:50 60.3 °F 57.3 °F 30.03 in West 1 mph 3 mph 90% 0.00 in 0 W/m2
05:00 60.3 °F 57.3 °F 30.03 in West 1 mph 2 mph 90% 0.00 in 0 W/m2
05:10 60.3 °F 57.6 °F 30.03 in WSW 1 mph 2 mph 91% 0.00 in 0 W/m2
05:20 60.3 °F 57.3 °F 30.03 in SSW 2 mph 4 mph 90% 0.00 in 0 W/m2
05:30 60.3 °F 57.3 °F 30.02 in SSW 1 mph 4 mph 90% 0.00 in 0 W/m2
05:40 60.3 °F 57.4 °F 30.02 in East 1 mph 3 mph 90% 0.00 in 0 W/m2
05:50 60.4 °F 57.5 °F 30.02 in SE 1 mph 2 mph 90% 0.00 in 1 W/m2
06:00 60.5 °F 57.5 °F 30.02 in East 1 mph 3 mph 90% 0.00 in 3 W/m2
06:10 60.6 °F 57.7 °F 30.02 in SE 2 mph 6 mph 90% 0.00 in 10 W/m2
06:20 60.6 °F 57.4 °F 30.01 in Calm   5 mph 89% 0.00 in 17 W/m2
06:30 60.6 °F 57.4 °F 30.01 in South 2 mph 4 mph 89% 0.00 in 25 W/m2
06:40 60.8 °F 57.5 °F 30.02 in SW 1 mph 4 mph 89% 0.00 in 43 W/m2
06:50 61 °F 57.7 °F 30.02 in SW 1 mph 2 mph 89% 0.00 in 36 W/m2
07:00 61.2 °F 57.9 °F 30.02 in SW 3 mph 5 mph 89% 0.00 in 25 W/m2
07:10 61.2 °F 57.9 °F 30.01 in SW 1 mph 3 mph 89% 0.00 in 50 W/m2
07:20 61.3 °F 58.1 °F 30.01 in SW 2 mph 5 mph 89% 0.00 in 46 W/m2
07:30 61.3 °F 58.1 °F 30.02 in SW 3 mph 6 mph 89% 0.00 in 37 W/m2
07:40 61.5 °F 58.2 °F 30.02 in SW 3 mph 5 mph 89% 0.00 in 52 W/m2
07:50 61.7 °F 58.1 °F 30.01 in SW 2 mph 7 mph 88% 0.00 in 86 W/m2
08:00 61.9 °F 58.3 °F 30.01 in SW 3 mph 8 mph 88% 0.00 in 127 W/m2
08:10 62.3 °F 58.7 °F 30.01 in SSW 2 mph 5 mph 88% 0.00 in 171 W/m2
08:20 62.7 °F 58.4 °F 30.02 in SSW 3 mph 5 mph 86% 0.00 in 136 W/m2
08:30 63 °F 58.4 °F 30.01 in SSW 3 mph 7 mph 85% 0.00 in 220 W/m2
08:40 63.5 °F 58.9 °F 30.01 in SSW 3 mph 8 mph 85% 0.00 in 289 W/m2
08:50 64 °F 59.1 °F 30.01 in SSW 3 mph 7 mph 84% 0.00 in 167 W/m2
09:00 64.2 °F 58.9 °F 30.01 in SSW 2 mph 7 mph 83% 0.00 in 189 W/m2
09:10 64.6 °F 59.3 °F 30.00 in SSW 2 mph 6 mph 83% 0.00 in 247 W/m2
09:20 64.9 °F 59.3 °F 30.00 in SW 5 mph 7 mph 82% 0.00 in 271 W/m2
09:30 65.5 °F 59.6 °F 30.00 in SW 3 mph 8 mph 81% 0.00 in 258 W/m2
09:40 65.7 °F 59.3 °F 30.01 in SW 5 mph 9 mph 80% 0.00 in 161 W/m2
09:50 65.7 °F 59.3 °F 30.01 in SW 5 mph 9 mph 80% 0.00 in 330 W/m2
10:00 66.4 °F 60.1 °F 30.00 in SW 7 mph 13 mph 80% 0.00 in 412 W/m2
10:10 66.9 °F 60.2 °F 30.00 in SW 7 mph 12 mph 79% 0.00 in 279 W/m2
10:20 67.2 °F 60.4 °F 30.00 in SW 5 mph 10 mph 79% 0.00 in 401 W/m2
10:30 67.5 °F 60.4 °F 30.00 in WSW 5 mph 8 mph 78% 0.00 in 273 W/m2
10:40 67.6 °F 60.5 °F 30.00 in SW 5 mph 10 mph 78% 0.00 in 396 W/m2
10:50 68.4 °F 60.9 °F 29.99 in SW 3 mph 8 mph 77% 0.00 in 550 W/m2
11:00 69.4 °F 61.2 °F 29.99 in WSW 5 mph 8 mph 75% 0.00 in 368 W/m2
11:10 69.7 °F 61 °F 29.99 in SW 3 mph 8 mph 74% 0.00 in 335 W/m2
11:20 70.2 °F 61.5 °F 29.99 in SW 3 mph 7 mph 74% 0.00 in 322 W/m2
11:30 70.5 °F 61.4 °F 29.99 in WSW 5 mph 8 mph 73% 0.00 in 209 W/m2
11:40 70.5 °F 61.4 °F 29.99 in SW 6 mph 10 mph 73% 0.00 in 387 W/m2
11:50 71.6 °F 62.4 °F 29.98 in WSW 6 mph 8 mph 73% 0.00 in 655 W/m2
12:00 72.9 °F 62.6 °F 29.97 in SW 3 mph 9 mph 70% 0.00 in 850 W/m2
12:10 73.9 °F 62.7 °F 29.97 in SW 5 mph 9 mph 68% 0.00 in 499 W/m2
12:20 74.2 °F 62.9 °F 29.97 in SW 3 mph 12 mph 68% 0.00 in 856 W/m2
12:30 75.1 °F 63.4 °F 29.97 in WSW 3 mph 8 mph 67% 0.00 in 830 W/m2
12:40 75.2 °F 62.6 °F 29.97 in South 1 mph 8 mph 65% 0.00 in 351 W/m2
12:50 75.6 °F 63 °F 29.96 in ESE 2 mph 6 mph 65% 0.00 in 854 W/m2
13:00 76.9 °F 63.3 °F 29.96 in SSW 6 mph 10 mph 63% 0.00 in 850 W/m2
13:10 78 °F 63.4 °F 29.96 in SSW 6 mph 10 mph 61% 0.00 in 845 W/m2
13:20 78.3 °F 63.2 °F 29.96 in SSW 7 mph 10 mph 60% 0.00 in 817 W/m2
13:30 78.7 °F 63.6 °F 29.95 in SW 6 mph 11 mph 60% 0.00 in 829 W/m2
13:40 79.3 °F 64.2 °F 29.95 in WSW 5 mph 9 mph 60% 0.00 in 393 W/m2
13:50 79.9 °F 64.3 °F 29.95 in WSW 5 mph 12 mph 59% 0.00 in 807 W/m2
14:00 79.9 °F 63.8 °F 29.94 in SW 7 mph 12 mph 58% 0.00 in 794 W/m2
14:10 80.2 °F 64.1 °F 29.94 in SW 7 mph 11 mph 58% 0.00 in 779 W/m2
14:20 80.6 °F 63.5 °F 29.93 in SW 7 mph 11 mph 56% 0.00 in 763 W/m2
14:30 81.1 °F 63.4 °F 29.93 in SW 5 mph 12 mph 55% 0.00 in 746 W/m2
14:40 81.5 °F 63.3 °F 29.92 in SW 5 mph 12 mph 54% 0.00 in 727 W/m2
14:50 81.9 °F 63.7 °F 29.92 in WSW 6 mph 15 mph 54% 0.00 in 707 W/m2
15:00 82 °F 63.8 °F 29.92 in SW 6 mph 13 mph 54% 0.00 in 685 W/m2
15:10 82 °F 63.2 °F 29.91 in SW 8 mph 13 mph 53% 0.00 in 663 W/m2
Knjazevac, Serbia
Compliments of Weather Underground - 2 mb